CheckWX is a tool to help pilots better visualize weather data.  It is not intended as a substitute for an official pre-flight weather briefing.

22:49:36 UTC

KCID METAR
The Eastern Iowa Airport
Cedar Rapids, Iowa, USA
Current

58 mins ago

KCID 222152Z 29003KT 10SM CLR 00/M05 A3012 RMK AO2 SLP212 T00001050
Observed
Nov-22 @ 21:52 UTC
Wind
  • 290° at 3 KTS
Visibility
10 SM
Flight Rules
VFR
Cloud Levels
  • Clear skies
Temperature
C / 32°F
Dewpoint
-5°C / 23°F
Humidity
69%
Altimeter
30.12" Hg
Pressure
1020.02 hPa
Previous

2 hours ago

KCID 222052Z 32004KT 10SM CLR 01/M05 A3013 RMK AO2 SLP212 T00061050 56032
Observed
Nov-22 @ 20:52 UTC
Wind
  • 320° at 4 KTS
Visibility
10 SM
Flight Rules
VFR
Cloud Levels
  • Clear skies
Temperature
C / 34°F
Dewpoint
-5°C / 23°F
Humidity
65%
Altimeter
30.13" Hg
Pressure
1020.32 hPa
Previous

3 hours ago

KCID 221952Z 34005KT 10SM CLR 01/M05 A3015 RMK AO2 SLP221 T00061050
Observed
Nov-22 @ 19:52 UTC
Wind
  • 340° at 5 KTS
Visibility
10 SM
Flight Rules
VFR
Cloud Levels
  • Clear skies
Temperature
C / 34°F
Dewpoint
-5°C / 23°F
Humidity
65%
Altimeter
30.15" Hg
Pressure
1021.02 hPa